Time;durP1;ratioP1;P1;durP2;ratioP2;P2;SDS_P1;SDS_P2;PMS_P1;PMS_P2;Temp;Humidity;BMP_temperature;BMP_pressure;BME280_temperature;BME280_humidity;BME280_pressure;Samples;Min_cycle;Max_cycle;Signal;HPM_P1;HPM_P2
2022/04/13 00:00:33;;;;;;;;;;;11.30;78.90;;;;;;5038814;28;19960;-65
2022/04/13 00:02:59;;;;;;;;;;;11.20;79.80;;;;;;5036464;28;19913;-64
2022/04/13 00:05:24;;;;;;;;;;;11.20;80.60;;;;;;5037580;28;20370;-64
2022/04/13 00:07:50;;;;;;;;;;;11.10;82.10;;;;;;5034835;28;20279;-65
2022/04/13 00:10:15;;;;;;;;;;;11.20;82.60;;;;;;5038747;28;19978;-65
2022/04/13 00:12:41;;;;;;;;;;;11.10;83.40;;;;;;5036515;28;19920;-65
2022/04/13 00:15:08;;;;;;;;;;;11.10;84.00;;;;;;5036700;28;19978;-67
2022/04/13 00:17:35;;;;;;;;;;;11.10;84.20;;;;;;5037866;28;19917;-65
2022/04/13 00:20:00;;;;;;;;;;;11.10;84.90;;;;;;5038759;28;19920;-65
2022/04/13 00:22:26;;;;;;;;;;;11.00;84.80;;;;;;5038721;28;19920;-65
2022/04/13 00:24:51;;;;;;;;;;;11.00;86.00;;;;;;5039406;28;19913;-65
2022/04/13 00:27:17;;;;;;;;;;;11.00;85.60;;;;;;5037810;28;20340;-65
2022/04/13 00:29:42;;;;;;;;;;;11.00;86.40;;;;;;5038722;28;20365;-65
2022/04/13 00:32:08;;;;;;;;;;;11.00;86.30;;;;;;5039529;28;20012;-65
2022/04/13 00:34:34;;;;;;;;;;;11.00;86.20;;;;;;5037590;28;19944;-65
2022/04/13 00:36:59;;;;;;;;;;;11.00;86.30;;;;;;5039338;28;19987;-65
2022/04/13 00:39:25;;;;;;;;;;;11.10;86.70;;;;;;5038549;28;19921;-65
2022/04/13 00:41:57;;;;;;;;;;;11.00;86.90;;;;;;5038657;28;19917;-65
2022/04/13 00:44:23;;;;;;;;;;;11.00;87.20;;;;;;5036600;28;19956;-65
2022/04/13 00:46:49;;;;;;;;;;;11.00;87.40;;;;;;5036107;28;19967;-65
2022/04/13 00:49:14;;;;;;;;;;;11.00;88.50;;;;;;5034290;28;20431;-65
2022/04/13 00:51:40;;;;;;;;;;;10.90;88.60;;;;;;5033503;28;20020;-66
2022/04/13 00:54:06;;;;;;;;;;;10.90;88.90;;;;;;5035450;28;19964;-65
2022/04/13 00:56:32;;;;;;;;;;;10.80;90.10;;;;;;5035675;28;19990;-65
2022/04/13 00:59:02;;;;;;;;;;;10.80;90.20;;;;;;5036476;28;19917;-65
2022/04/13 01:01:28;;;;;;;;;;;10.80;90.30;;;;;;5036378;28;19963;-65
2022/04/13 01:03:54;;;;;;;;;;;10.80;90.40;;;;;;5037631;28;19917;-65
2022/04/13 01:06:20;;;;;;;;;;;10.70;90.60;;;;;;5035838;28;19921;-65
2022/04/13 01:08:49;;;;;;;;;;;10.70;90.70;;;;;;5033836;28;19921;-65
2022/04/13 01:11:15;;;;;;;;;;;10.70;91.00;;;;;;5036663;28;19917;-65
2022/04/13 01:13:40;;;;;;;;;;;10.60;91.00;;;;;;5036813;28;20290;-66
2022/04/13 01:16:06;;;;;;;;;;;10.60;91.40;;;;;;5034751;28;20368;-65
2022/04/13 01:18:32;;;;;;;;;;;10.60;91.60;;;;;;5036895;28;19963;-65
2022/04/13 01:20:58;;;;;;;;;;;10.60;91.70;;;;;;5034706;28;19919;-65
2022/04/13 01:23:24;;;;;;;;;;;10.50;92.00;;;;;;5034018;28;19976;-65
2022/04/13 01:25:50;;;;;;;;;;;10.50;92.20;;;;;;5037014;28;19920;-65
2022/04/13 01:28:16;;;;;;;;;;;10.50;92.10;;;;;;5035100;28;20384;-65
2022/04/13 01:30:41;;;;;;;;;;;10.40;92.40;;;;;;5036164;28;19924;-65
2022/04/13 01:33:07;;;;;;;;;;;10.40;92.50;;;;;;5036826;28;19913;-65
2022/04/13 01:35:32;;;;;;;;;;;10.40;92.50;;;;;;5034753;28;19986;-65
2022/04/13 01:37:58;;;;;;;;;;;10.40;92.40;;;;;;5036885;28;19956;-65
2022/04/13 01:40:23;;;;;;;;;;;10.40;92.40;;;;;;5033618;28;19957;-65
2022/04/13 01:42:49;;;;;;;;;;;10.30;92.50;;;;;;5034810;28;19917;-65
2022/04/13 01:45:19;;;;;;;;;;;10.30;92.70;;;;;;5035106;28;19917;-65
2022/04/13 01:47:46;;;;;;;;;;;10.30;92.90;;;;;;5036123;28;19987;-65
2022/04/13 01:50:11;;;;;;;;;;;10.20;92.90;;;;;;5035002;28;19917;-65
2022/04/13 01:52:36;;;;;;;;;;;10.20;92.80;;;;;;5035001;28;20000;-65
2022/04/13 01:55:02;;;;;;;;;;;10.10;93.20;;;;;;5035167;28;19912;-65
2022/04/13 01:57:27;;;;;;;;;;;10.20;93.10;;;;;;5036729;28;19917;-65
2022/04/13 01:59:53;;;;;;;;;;;10.10;93.60;;;;;;5035019;28;19921;-65
2022/04/13 02:02:19;;;;;;;;;;;10.10;94.00;;;;;;5037663;28;20434;-65
2022/04/13 02:04:44;;;;;;;;;;;10.00;93.50;;;;;;5039834;28;19929;-65
2022/04/13 02:07:10;;;;;;;;;;;10.00;94.10;;;;;;5039833;28;19916;-64
2022/04/13 02:09:35;;;;;;;;;;;9.90;93.70;;;;;;5038088;28;20360;-65
2022/04/13 02:12:01;;;;;;;;;;;9.90;93.80;;;;;;5038614;28;19939;-65
2022/04/13 02:14:26;;;;;;;;;;;9.90;94.10;;;;;;5041561;28;20304;-65
2022/04/13 02:16:52;;;;;;;;;;;9.80;94.20;;;;;;5037353;28;19923;-65
2022/04/13 02:19:17;;;;;;;;;;;9.80;94.40;;;;;;5040515;28;19916;-65
2022/04/13 02:21:43;;;;;;;;;;;9.80;94.40;;;;;;5037120;28;19917;-65
2022/04/13 02:24:08;;;;;;;;;;;9.80;94.60;;;;;;5041452;28;19916;-66
2022/04/13 02:26:34;;;;;;;;;;;9.80;94.50;;;;;;5038597;28;19913;-65
2022/04/13 02:29:00;;;;;;;;;;;9.80;94.40;;;;;;5040231;28;19917;-65
2022/04/13 02:31:25;;;;;;;;;;;9.80;94.70;;;;;;5035691;28;20424;-65
2022/04/13 02:33:55;;;;;;;;;;;9.80;94.60;;;;;;5040960;28;19940;-65
2022/04/13 02:36:21;;;;;;;;;;;9.70;95.30;;;;;;5037679;28;20365;-65
2022/04/13 02:38:46;;;;;;;;;;;9.70;94.80;;;;;;5040764;28;19927;-65
2022/04/13 02:41:12;;;;;;;;;;;9.70;94.80;;;;;;5037642;28;19924;-65
2022/04/13 02:43:38;;;;;;;;;;;9.70;95.30;;;;;;5037266;28;19967;-65
2022/04/13 02:46:03;;;;;;;;;;;9.70;95.30;;;;;;5035906;28;19917;-65
2022/04/13 02:48:29;;;;;;;;;;;9.60;95.00;;;;;;5039064;28;20373;-65
2022/04/13 02:50:56;;;;;;;;;;;9.50;95.20;;;;;;5038441;28;19917;-65
2022/04/13 02:53:22;;;;;;;;;;;9.50;95.30;;;;;;5037474;28;19994;-65
2022/04/13 02:55:48;;;;;;;;;;;9.50;95.20;;;;;;5037713;28;19917;-65
2022/04/13 02:58:13;;;;;;;;;;;9.50;95.40;;;;;;5039293;28;20035;-64
2022/04/13 03:00:39;;;;;;;;;;;9.50;95.50;;;;;;5036186;28;20321;-65
2022/04/13 03:03:04;;;;;;;;;;;9.40;95.60;;;;;;5037035;28;19964;-65
2022/04/13 03:05:30;;;;;;;;;;;9.40;95.80;;;;;;5039101;28;19917;-65
2022/04/13 03:07:56;;;;;;;;;;;9.40;95.90;;;;;;5039906;28;19913;-65
2022/04/13 03:10:21;;;;;;;;;;;9.30;95.70;;;;;;5039181;28;19929;-65
2022/04/13 03:12:47;;;;;;;;;;;9.30;95.70;;;;;;5037436;28;19913;-65
2022/04/13 03:15:12;;;;;;;;;;;9.30;96.30;;;;;;5035630;28;19999;-65
2022/04/13 03:17:38;;;;;;;;;;;9.30;96.00;;;;;;5039728;28;19921;-65
2022/04/13 03:20:04;;;;;;;;;;;9.30;96.20;;;;;;5038606;28;19952;-65
2022/04/13 03:22:29;;;;;;;;;;;9.20;96.00;;;;;;5037656;28;19961;-65
2022/04/13 03:24:55;;;;;;;;;;;9.20;96.00;;;;;;5036404;28;19949;-65
2022/04/13 03:27:20;;;;;;;;;;;9.20;96.20;;;;;;5037986;28;20585;-65
2022/04/13 03:29:46;;;;;;;;;;;9.20;96.20;;;;;;5038122;28;19921;-65
2022/04/13 03:32:11;;;;;;;;;;;9.20;96.00;;;;;;5036584;28;20282;-65
2022/04/13 03:34:37;;;;;;;;;;;9.30;95.90;;;;;;5037630;28;19982;-65
2022/04/13 03:37:02;;;;;;;;;;;9.20;96.40;;;;;;5037146;28;19921;-65
2022/04/13 03:39:28;;;;;;;;;;;9.20;96.10;;;;;;5038065;28;19916;-65
2022/04/13 03:41:54;;;;;;;;;;;9.20;96.30;;;;;;5038056;28;20385;-65
2022/04/13 03:44:20;;;;;;;;;;;9.20;96.10;;;;;;5038068;28;19920;-65
2022/04/13 03:46:45;;;;;;;;;;;9.20;96.50;;;;;;5033442;28;19932;-65
2022/04/13 03:49:11;;;;;;;;;;;9.10;96.70;;;;;;5038427;28;19919;-65
2022/04/13 03:51:37;;;;;;;;;;;9.10;96.60;;;;;;5035483;28;19916;-65
2022/04/13 03:54:02;;;;;;;;;;;9.10;96.60;;;;;;5038207;28;19948;-65
2022/04/13 03:56:29;;;;;;;;;;;9.10;96.90;;;;;;5035617;28;20385;-65
2022/04/13 03:58:58;;;;;;;;;;;9.10;96.70;;;;;;5039178;28;19913;-65
2022/04/13 04:01:24;;;;;;;;;;;9.00;96.80;;;;;;5034108;28;20220;-65
2022/04/13 04:03:49;;;;;;;;;;;9.00;96.60;;;;;;5040115;28;20492;-65
2022/04/13 04:06:14;;;;;;;;;;;8.90;96.50;;;;;;5037044;28;20381;-65
2022/04/13 04:08:40;;;;;;;;;;;8.90;96.90;;;;;;5038572;28;20024;-65
2022/04/13 04:11:05;;;;;;;;;;;8.80;97.20;;;;;;5039874;28;19963;-64
2022/04/13 04:13:31;;;;;;;;;;;8.80;97.00;;;;;;5038260;28;19916;-64
2022/04/13 04:15:57;;;;;;;;;;;8.80;97.40;;;;;;5039557;28;20373;-65
2022/04/13 04:18:23;;;;;;;;;;;8.80;97.40;;;;;;5035585;28;19975;-65
2022/04/13 04:20:48;;;;;;;;;;;8.80;97.50;;;;;;5038033;28;19952;-65
2022/04/13 04:23:14;;;;;;;;;;;8.80;97.30;;;;;;5035804;28;19916;-64
2022/04/13 04:25:39;;;;;;;;;;;8.80;97.20;;;;;;5034260;28;19988;-64
2022/04/13 04:28:06;;;;;;;;;;;8.70;97.30;;;;;;5035390;28;19927;-65
2022/04/13 04:30:31;;;;;;;;;;;8.70;97.40;;;;;;5035797;28;19936;-64
2022/04/13 04:32:57;;;;;;;;;;;8.70;97.30;;;;;;5034747;28;20409;-64
2022/04/13 04:35:22;;;;;;;;;;;8.60;97.30;;;;;;5033860;28;20334;-65
2022/04/13 04:37:48;;;;;;;;;;;8.60;97.50;;;;;;5032101;28;20385;-65
2022/04/13 04:40:14;;;;;;;;;;;8.70;97.20;;;;;;5032697;28;19931;-65
2022/04/13 04:42:49;;;;;;;;;;;8.60;97.40;;;;;;5030732;28;19909;-66
2022/04/13 04:45:18;;;;;;;;;;;8.60;97.60;;;;;;5034746;28;19916;-67
2022/04/13 04:47:43;;;;;;;;;;;8.70;97.50;;;;;;5027587;28;19917;-66
2022/04/13 04:50:10;;;;;;;;;;;8.70;97.40;;;;;;5031239;28;19923;-66
2022/04/13 04:52:39;;;;;;;;;;;8.70;97.20;;;;;;5034043;28;20284;-67
2022/04/13 04:55:05;;;;;;;;;;;8.80;97.50;;;;;;5033652;28;19980;-68
2022/04/13 04:57:30;;;;;;;;;;;8.80;97.50;;;;;;5029116;28;20356;-67
2022/04/13 04:59:56;;;;;;;;;;;8.80;97.40;;;;;;5034360;28;19913;-67
2022/04/13 05:02:21;;;;;;;;;;;8.80;97.50;;;;;;5032144;28;19963;-67
2022/04/13 05:04:47;;;;;;;;;;;8.80;97.50;;;;;;5034240;28;20005;-68
2022/04/13 05:07:12;;;;;;;;;;;8.80;97.30;;;;;;5033752;28;19923;-67
2022/04/13 05:09:38;;;;;;;;;;;9.00;97.30;;;;;;5034738;28;19928;-67
2022/04/13 05:12:03;;;;;;;;;;;9.00;97.20;;;;;;5034659;28;19922;-68
2022/04/13 05:14:29;;;;;;;;;;;9.10;97.30;;;;;;5037512;28;20284;-67
2022/04/13 05:16:54;;;;;;;;;;;9.10;97.20;;;;;;5035357;28;19971;-67
2022/04/13 05:19:20;;;;;;;;;;;9.20;97.20;;;;;;5038967;28;19916;-67
2022/04/13 05:21:45;;;;;;;;;;;9.20;97.40;;;;;;5037763;28;20273;-67
2022/04/13 05:24:11;;;;;;;;;;;9.20;97.30;;;;;;5032735;28;19917;-69
2022/04/13 05:26:37;;;;;;;;;;;9.30;97.10;;;;;;5033109;28;19967;-67
2022/04/13 05:29:02;;;;;;;;;;;9.30;97.00;;;;;;5031748;28;19921;-67
2022/04/13 05:31:28;;;;;;;;;;;9.30;96.90;;;;;;5036175;28;20430;-68
2022/04/13 05:33:54;;;;;;;;;;;9.30;97.00;;;;;;5037246;28;19924;-67
2022/04/13 05:36:19;;;;;;;;;;;9.30;97.10;;;;;;5036976;28;19968;-68
2022/04/13 05:38:45;;;;;;;;;;;9.30;97.10;;;;;;5042609;28;19909;-68
2022/04/13 05:41:10;;;;;;;;;;;9.30;97.10;;;;;;5040539;28;19913;-67
2022/04/13 05:43:36;;;;;;;;;;;9.40;97.10;;;;;;5041274;28;19970;-67
2022/04/13 05:46:02;;;;;;;;;;;9.50;97.10;;;;;;5042543;28;20054;-67
2022/04/13 05:48:27;;;;;;;;;;;9.60;97.00;;;;;;5041848;28;19985;-68
2022/04/13 05:50:52;;;;;;;;;;;9.70;97.20;;;;;;5041081;28;20350;-68
2022/04/13 05:53:18;;;;;;;;;;;9.80;96.90;;;;;;5041636;28;19920;-67
2022/04/13 05:55:43;;;;;;;;;;;9.90;96.80;;;;;;5040999;28;19925;-67
2022/04/13 05:58:09;;;;;;;;;;;9.90;96.80;;;;;;5042076;28;20324;-67
2022/04/13 06:00:35;;;;;;;;;;;10.00;96.70;;;;;;5041808;28;20349;-67
2022/04/13 06:03:00;;;;;;;;;;;10.10;96.70;;;;;;5041577;28;20000;-67
2022/04/13 06:05:25;;;;;;;;;;;10.10;96.60;;;;;;5039890;28;19948;-68
2022/04/13 06:07:53;;;;;;;;;;;10.20;96.60;;;;;;5040566;28;19924;-68
2022/04/13 06:10:19;;;;;;;;;;;10.20;96.40;;;;;;5038422;28;19917;-68
2022/04/13 06:12:46;;;;;;;;;;;10.30;96.30;;;;;;5037108;28;19957;-68
2022/04/13 06:15:12;;;;;;;;;;;10.30;96.30;;;;;;5039793;28;19920;-68
2022/04/13 06:17:38;;;;;;;;;;;10.40;96.30;;;;;;5041428;28;20070;-68
2022/04/13 06:20:04;;;;;;;;;;;10.50;96.20;;;;;;5040243;28;20407;-67
2022/04/13 06:22:31;;;;;;;;;;;10.60;96.10;;;;;;5035443;28;19959;-75
2022/04/13 06:24:56;;;;;;;;;;;10.70;96.10;;;;;;5032408;28;19913;-73
2022/04/13 06:27:21;;;;;;;;;;;10.70;96.10;;;;;;5038299;28;19921;-75
2022/04/13 06:29:47;;;;;;;;;;;10.80;95.90;;;;;;5037864;28;19927;-75
2022/04/13 06:32:13;;;;;;;;;;;10.90;95.90;;;;;;5005454;28;19912;-78
2022/04/13 06:34:38;;;;;;;;;;;11.00;95.80;;;;;;5037697;28;19913;-72
2022/04/13 06:37:04;;;;;;;;;;;11.00;95.80;;;;;;5040068;28;19995;-68
2022/04/13 06:39:29;;;;;;;;;;;11.10;95.80;;;;;;5038153;28;19913;-70
2022/04/13 06:41:55;;;;;;;;;;;11.20;95.70;;;;;;5038961;28;20405;-70
2022/04/13 06:44:21;;;;;;;;;;;11.20;95.60;;;;;;5037514;28;19936;-70
2022/04/13 06:46:46;;;;;;;;;;;11.40;95.50;;;;;;5037291;28;19921;-71
2022/04/13 06:49:12;;;;;;;;;;;11.50;95.30;;;;;;5037713;28;19917;-70
2022/04/13 06:51:37;;;;;;;;;;;11.60;95.00;;;;;;5039520;28;19944;-70
2022/04/13 06:54:03;;;;;;;;;;;11.70;94.90;;;;;;5037157;28;19971;-69
2022/04/13 06:56:28;;;;;;;;;;;11.90;94.90;;;;;;5038509;28;20438;-70
2022/04/13 06:58:54;;;;;;;;;;;12.00;94.50;;;;;;5040632;28;19924;-70
2022/04/13 07:01:19;;;;;;;;;;;12.10;94.60;;;;;;5037118;28;19925;-70
2022/04/13 07:03:44;;;;;;;;;;;12.20;94.50;;;;;;5037815;28;20396;-71
2022/04/13 07:06:10;;;;;;;;;;;12.30;94.20;;;;;;5036413;28;20385;-69
2022/04/13 07:08:35;;;;;;;;;;;12.40;94.00;;;;;;5037728;28;20388;-70
2022/04/13 07:11:01;;;;;;;;;;;12.50;93.70;;;;;;5036011;28;20389;-72
2022/04/13 07:13:26;;;;;;;;;;;12.70;93.80;;;;;;5037568;28;20366;-72
2022/04/13 07:15:52;;;;;;;;;;;12.80;93.70;;;;;;5037695;28;20397;-72
2022/04/13 07:18:18;;;;;;;;;;;13.00;93.30;;;;;;5037494;28;19919;-71
2022/04/13 07:20:44;;;;;;;;;;;13.10;93.00;;;;;;5037893;28;19920;-68
2022/04/13 07:23:09;;;;;;;;;;;13.20;93.00;;;;;;5038871;28;19913;-68
2022/04/13 07:25:35;;;;;;;;;;;13.30;92.90;;;;;;5038461;28;19914;-69
2022/04/13 07:28:00;;;;;;;;;;;13.50;92.80;;;;;;5037001;28;19913;-65
2022/04/13 07:30:25;;;;;;;;;;;13.60;92.20;;;;;;5037977;28;20004;-68
2022/04/13 07:32:52;;;;;;;;;;;13.60;92.20;;;;;;5039324;28;19917;-68
2022/04/13 07:35:17;;;;;;;;;;;13.70;92.00;;;;;;5036300;28;19921;-68
2022/04/13 07:37:46;;;;;;;;;;;13.70;91.70;;;;;;5036185;28;19920;-68
2022/04/13 07:40:12;;;;;;;;;;;13.80;92.10;;;;;;5038631;28;19921;-67
2022/04/13 07:42:38;;;;;;;;;;;13.90;91.90;;;;;;5039722;28;19916;-67
2022/04/13 07:45:04;;;;;;;;;;;13.90;91.90;;;;;;5020005;28;19928;-67
2022/04/13 07:47:30;;;;;;;;;;;14.00;91.90;;;;;;5037302;28;19916;-68
2022/04/13 07:49:56;;;;;;;;;;;14.00;91.50;;;;;;5039423;28;19913;-68
2022/04/13 07:52:21;;;;;;;;;;;14.10;91.60;;;;;;5036013;28;19921;-65
2022/04/13 07:54:47;;;;;;;;;;;14.20;91.30;;;;;;5037073;28;20148;-68
2022/04/13 07:57:13;;;;;;;;;;;14.40;90.90;;;;;;5037025;28;19996;-68
2022/04/13 07:59:38;;;;;;;;;;;14.50;90.60;;;;;;5035037;28;19917;-68
2022/04/13 08:02:04;;;;;;;;;;;14.60;90.30;;;;;;5036478;28;19920;-67
2022/04/13 08:04:29;;;;;;;;;;;14.70;90.60;;;;;;5038565;28;19917;-68
2022/04/13 08:06:55;;;;;;;;;;;14.80;90.10;;;;;;5036320;28;19917;-66
2022/04/13 08:09:20;;;;;;;;;;;14.90;89.50;;;;;;5035277;28;20463;-67
2022/04/13 08:11:52;;;;;;;;;;;14.90;88.30;;;;;;5035324;28;21204;-67
2022/04/13 08:14:18;;;;;;;;;;;15.00;88.70;;;;;;5034387;28;19913;-65
2022/04/13 08:16:44;;;;;;;;;;;15.10;88.90;;;;;;5035462;28;19996;-65
2022/04/13 08:19:09;;;;;;;;;;;15.20;88.50;;;;;;5037082;28;20007;-65
2022/04/13 08:21:37;;;;;;;;;;;15.30;88.30;;;;;;5034967;28;19913;-66
2022/04/13 08:24:03;;;;;;;;;;;15.40;88.00;;;;;;5037536;28;20024;-65
2022/04/13 08:26:28;;;;;;;;;;;15.60;88.00;;;;;;5036374;28;20012;-66
2022/04/13 08:28:54;;;;;;;;;;;15.70;86.30;;;;;;5036702;28;19917;-67
2022/04/13 08:31:19;;;;;;;;;;;15.90;86.50;;;;;;5035791;28;19928;-67
2022/04/13 08:33:46;;;;;;;;;;;16.00;86.10;;;;;;5037547;28;19970;-66
2022/04/13 08:36:12;;;;;;;;;;;16.00;84.90;;;;;;5038307;28;19912;-67
2022/04/13 08:38:38;;;;;;;;;;;16.10;82.40;;;;;;5032769;28;20618;-67
2022/04/13 08:41:08;;;;;;;;;;;16.20;82.00;;;;;;5036631;28;19970;-68
2022/04/13 08:43:43;;;;;;;;;;;16.30;82.90;;;;;;5036459;28;19917;-70
2022/04/13 08:46:11;;;;;;;;;;;16.50;82.70;;;;;;5033530;28;20020;-71
2022/04/13 08:48:37;;;;;;;;;;;16.60;82.40;;;;;;5036708;28;19921;-70
2022/04/13 08:51:03;;;;;;;;;;;16.70;81.60;;;;;;5033480;28;19970;-70
2022/04/13 08:53:30;;;;;;;;;;;16.90;80.30;;;;;;5036304;28;19916;-70
2022/04/13 08:55:57;;;;;;;;;;;17.00;80.80;;;;;;5035641;28;20484;-70
2022/04/13 08:58:35;;;;;;;;;;;17.10;79.50;;;;;;5035524;28;19913;-67
2022/04/13 09:01:02;;;;;;;;;;;17.20;78.50;;;;;;5035907;28;19917;-67
2022/04/13 09:03:36;;;;;;;;;;;17.20;78.10;;;;;;5036638;28;19923;-67
2022/04/13 09:06:02;;;;;;;;;;;17.20;77.90;;;;;;5036763;28;19917;-66
2022/04/13 09:08:39;;;;;;;;;;;17.30;78.00;;;;;;5034567;28;20301;-66
2022/04/13 09:11:05;;;;;;;;;;;17.40;77.20;;;;;;5035836;28;19909;-65
2022/04/13 09:13:32;;;;;;;;;;;17.50;77.30;;;;;;5035283;28;19957;-66
2022/04/13 09:15:58;;;;;;;;;;;17.70;78.00;;;;;;5035696;28;19996;-66
2022/04/13 09:18:24;;;;;;;;;;;17.90;74.30;;;;;;5035235;28;19993;-67
2022/04/13 09:20:50;;;;;;;;;;;18.00;72.90;;;;;;5035896;28;20246;-70
2022/04/13 09:23:15;;;;;;;;;;;18.10;73.10;;;;;;5036447;28;19924;-68
2022/04/13 09:25:41;;;;;;;;;;;18.20;71.50;;;;;;5034107;28;19959;-67
2022/04/13 09:28:06;;;;;;;;;;;18.30;73.30;;;;;;5037685;28;19967;-67
2022/04/13 09:30:33;;;;;;;;;;;18.50;72.60;;;;;;5035765;28;19912;-69
2022/04/13 09:32:59;;;;;;;;;;;18.60;69.70;;;;;;5035602;28;19925;-70
2022/04/13 09:35:24;;;;;;;;;;;18.70;70.20;;;;;;5035609;28;19959;-68
2022/04/13 09:37:51;;;;;;;;;;;18.80;66.70;;;;;;5034873;28;19921;-68
2022/04/13 09:40:30;;;;;;;;;;;18.90;65.90;;;;;;5035389;28;19928;-68
2022/04/13 09:43:04;;;;;;;;;;;19.00;65.30;;;;;;5035644;28;20338;-69
2022/04/13 09:45:34;;;;;;;;;;;19.10;65.10;;;;;;5034609;28;19917;-69
2022/04/13 09:47:59;;;;;;;;;;;19.20;65.60;;;;;;5038274;28;20431;-68
2022/04/13 09:50:25;;;;;;;;;;;19.30;62.50;;;;;;5033150;28;19925;-68
2022/04/13 09:52:55;;;;;;;;;;;19.40;62.00;;;;;;5036905;28;19917;-69
2022/04/13 09:55:24;;;;;;;;;;;19.40;61.60;;;;;;5034314;28;19921;-69
2022/04/13 09:57:49;;;;;;;;;;;19.60;61.10;;;;;;5032936;28;19949;-68
2022/04/13 10:00:15;;;;;;;;;;;19.70;60.90;;;;;;5035361;28;19960;-68
2022/04/13 10:02:42;;;;;;;;;;;19.80;59.70;;;;;;5036845;28;20337;-68
2022/04/13 10:05:08;;;;;;;;;;;19.90;59.30;;;;;;5036672;28;20004;-71
2022/04/13 10:07:34;;;;;;;;;;;20.00;57.70;;;;;;5033272;28;19913;-68
2022/04/13 10:10:00;;;;;;;;;;;20.00;58.50;;;;;;5033995;28;19975;-69
2022/04/13 10:12:26;;;;;;;;;;;20.20;58.30;;;;;;5033018;28;19913;-69
2022/04/13 10:14:52;;;;;;;;;;;20.30;56.60;;;;;;5030514;28;19923;-69
2022/04/13 10:17:19;;;;;;;;;;;20.30;56.20;;;;;;5030852;28;19963;-68
2022/04/13 10:19:51;;;;;;;;;;;20.30;58.00;;;;;;5036533;28;19960;-69
2022/04/13 10:22:17;;;;;;;;;;;20.30;57.10;;;;;;5038055;28;19920;-69
2022/04/13 10:24:43;;;;;;;;;;;20.40;56.80;;;;;;5040309;28;20011;-69
2022/04/13 10:27:12;;;;;;;;;;;20.50;57.60;;;;;;5041387;28;19971;-68
2022/04/13 10:29:38;;;;;;;;;;;20.70;57.70;;;;;;5037790;28;19960;-70
2022/04/13 10:32:14;;;;;;;;;;;20.80;58.30;;;;;;5040077;28;20412;-69
2022/04/13 10:34:40;;;;;;;;;;;21.00;58.60;;;;;;5039422;28;19999;-69
2022/04/13 10:37:06;;;;;;;;;;;21.10;57.50;;;;;;5040926;28;19909;-70
2022/04/13 10:39:32;;;;;;;;;;;21.30;57.60;;;;;;5040077;28;19939;-70
2022/04/13 10:41:58;;;;;;;;;;;21.30;56.10;;;;;;5040667;28;20012;-69
2022/04/13 10:44:33;;;;;;;;;;;21.30;55.50;;;;;;5040769;28;19999;-70
2022/04/13 10:47:01;;;;;;;;;;;21.30;54.70;;;;;;5040948;28;19916;-70
2022/04/13 10:49:29;;;;;;;;;;;21.30;55.00;;;;;;5039652;28;19920;-70
2022/04/13 10:51:57;;;;;;;;;;;21.40;56.30;;;;;;5037109;28;20290;-70
2022/04/13 10:54:24;;;;;;;;;;;21.50;55.10;;;;;;5038193;28;20012;-73
2022/04/13 10:56:56;;;;;;;;;;;21.60;55.40;;;;;;5039786;28;20051;-72
2022/04/13 10:59:24;;;;;;;;;;;21.70;55.90;;;;;;5037252;28;19922;-68
2022/04/13 11:01:55;;;;;;;;;;;21.80;54.20;;;;;;5038694;28;19913;-69
2022/04/13 11:04:22;;;;;;;;;;;21.80;54.00;;;;;;5037900;28;19917;-71
2022/04/13 11:06:48;;;;;;;;;;;21.80;52.90;;;;;;5035786;28;19917;-70
2022/04/13 11:09:16;;;;;;;;;;;21.70;53.10;;;;;;5035634;28;19917;-68
2022/04/13 11:11:43;;;;;;;;;;;21.70;53.60;;;;;;5038547;28;19966;-69
2022/04/13 11:14:23;;;;;;;;;;;21.90;53.50;;;;;;5035754;28;19920;-68
2022/04/13 11:17:07;;;;;;;;;;;22.00;54.70;;;;;;5037815;28;19917;-70
2022/04/13 11:19:32;;;;;;;;;;;22.10;53.10;;;;;;5037926;28;19913;-70
2022/04/13 11:21:58;;;;;;;;;;;22.10;53.40;;;;;;5037475;28;19920;-71
2022/04/13 11:24:42;;;;;;;;;;;22.10;51.00;;;;;;5018491;28;20016;-69
2022/04/13 11:27:09;;;;;;;;;;;22.00;52.10;;;;;;5039546;28;19917;-68
2022/04/13 11:29:35;;;;;;;;;;;22.20;52.90;;;;;;5037689;28;20370;-69
2022/04/13 11:32:00;;;;;;;;;;;22.30;52.70;;;;;;5038444;28;19944;-71
2022/04/13 11:34:39;;;;;;;;;;;22.50;52.90;;;;;;5037192;28;19948;-69
2022/04/13 11:37:05;;;;;;;;;;;22.60;52.60;;;;;;5019705;28;20255;-71
2022/04/13 11:39:44;;;;;;;;;;;22.70;52.30;;;;;;5038454;28;20430;-70
2022/04/13 11:42:17;;;;;;;;;;;22.90;51.90;;;;;;5035562;28;19951;-71
2022/04/13 11:44:49;;;;;;;;;;;22.90;51.10;;;;;;5037652;28;20370;-72
2022/04/13 11:47:15;;;;;;;;;;;22.90;52.00;;;;;;5038803;28;19917;-71
2022/04/13 11:49:55;;;;;;;;;;;23.00;52.00;;;;;;5037790;28;19999;-72
2022/04/13 11:52:37;;;;;;;;;;;23.10;51.80;;;;;;5032095;28;19955;-72
2022/04/13 11:55:13;;;;;;;;;;;23.20;50.80;;;;;;5035449;28;19917;-69
2022/04/13 11:57:57;;;;;;;;;;;23.10;49.90;;;;;;5035984;28;19974;-71
2022/04/13 12:00:35;;;;;;;;;;;23.10;51.00;;;;;;5035009;28;19925;-70
2022/04/13 12:03:01;;;;;;;;;;;23.30;51.20;;;;;;5036163;28;19913;-71
2022/04/13 12:05:27;;;;;;;;;;;23.30;50.60;;;;;;5036816;28;19975;-69
2022/04/13 12:07:53;;;;;;;;;;;23.30;50.30;;;;;;5036058;28;19939;-72
2022/04/13 12:10:18;;;;;;;;;;;23.30;50.10;;;;;;5037197;28;19917;-72
2022/04/13 12:12:53;;;;;;;;;;;23.40;50.60;;;;;;5033185;28;19917;-71
2022/04/13 12:15:18;;;;;;;;;;;23.50;51.10;;;;;;5035656;28;19917;-68
2022/04/13 12:17:44;;;;;;;;;;;23.70;50.90;;;;;;5036377;28;20351;-68
2022/04/13 12:20:26;;;;;;;;;;;23.80;50.90;;;;;;5034948;28;19917;-68
2022/04/13 12:22:51;;;;;;;;;;;24.00;50.80;;;;;;5036937;28;20270;-68
2022/04/13 12:25:18;;;;;;;;;;;24.10;50.10;;;;;;5036214;28;19971;-69
2022/04/13 12:28:03;;;;;;;;;;;24.00;50.00;;;;;;5036306;28;20383;-67
2022/04/13 12:30:28;;;;;;;;;;;24.10;49.70;;;;;;5036774;28;19920;-71
2022/04/13 12:32:54;;;;;;;;;;;24.10;49.80;;;;;;5037349;28;19939;-70
2022/04/13 12:35:19;;;;;;;;;;;24.20;49.40;;;;;;5035247;28;20038;-68
2022/04/13 12:37:52;;;;;;;;;;;24.30;49.70;;;;;;5036581;28;20385;-68
2022/04/13 12:40:26;;;;;;;;;;;24.20;49.50;;;;;;5037491;28;20008;-70
2022/04/13 12:42:52;;;;;;;;;;;24.30;51.10;;;;;;5037798;28;19963;-70
2022/04/13 12:45:18;;;;;;;;;;;24.30;49.20;;;;;;5036379;28;19921;-70
2022/04/13 12:47:47;;;;;;;;;;;24.20;48.40;;;;;;5036169;28;19970;-68
2022/04/13 12:50:12;;;;;;;;;;;24.20;49.90;;;;;;5035410;28;20373;-68
2022/04/13 12:52:38;;;;;;;;;;;24.10;48.50;;;;;;5036318;28;19923;-69
2022/04/13 12:55:04;;;;;;;;;;;24.20;49.00;;;;;;5034650;28;20350;-68
2022/04/13 12:57:30;;;;;;;;;;;24.30;49.10;;;;;;5035917;28;19917;-70
2022/04/13 12:59:55;;;;;;;;;;;24.40;49.00;;;;;;5034504;28;20336;-69
2022/04/13 13:02:21;;;;;;;;;;;24.40;48.30;;;;;;5034145;28;19917;-70
2022/04/13 13:04:48;;;;;;;;;;;24.40;48.20;;;;;;5035921;28;19971;-70
2022/04/13 13:07:13;;;;;;;;;;;24.40;48.30;;;;;;5036611;28;19923;-69
2022/04/13 13:09:40;;;;;;;;;;;24.30;47.90;;;;;;5034324;28;20297;-69
2022/04/13 13:12:16;;;;;;;;;;;24.10;48.30;;;;;;5036273;28;20020;-70
2022/04/13 13:14:43;;;;;;;;;;;23.90;47.10;;;;;;5036175;28;19957;-70
2022/04/13 13:17:15;;;;;;;;;;;23.80;47.00;;;;;;5035551;28;20376;-69
2022/04/13 13:19:41;;;;;;;;;;;23.80;47.00;;;;;;5033183;28;19917;-69
2022/04/13 13:22:07;;;;;;;;;;;23.80;46.70;;;;;;5033768;28;19924;-71
2022/04/13 13:24:33;;;;;;;;;;;23.70;45.90;;;;;;5034697;28;19952;-72
2022/04/13 13:27:02;;;;;;;;;;;23.70;46.60;;;;;;5037458;28;19909;-70
2022/04/13 13:29:27;;;;;;;;;;;23.70;46.70;;;;;;5033293;28;19925;-71
2022/04/13 13:31:53;;;;;;;;;;;23.80;47.10;;;;;;5033327;28;19917;-70
2022/04/13 13:34:22;;;;;;;;;;;23.90;47.30;;;;;;5037211;28;19963;-71
2022/04/13 13:36:57;;;;;;;;;;;24.10;46.90;;;;;;5036882;28;19913;-70
2022/04/13 13:39:25;;;;;;;;;;;24.20;47.30;;;;;;5038446;28;19913;-71
2022/04/13 13:42:04;;;;;;;;;;;24.30;47.50;;;;;;5034329;28;19917;-69
2022/04/13 13:44:29;;;;;;;;;;;24.20;46.90;;;;;;5035019;28;19913;-69
2022/04/13 13:46:55;;;;;;;;;;;24.20;46.80;;;;;;5033148;28;19917;-69
2022/04/13 13:49:20;;;;;;;;;;;24.20;46.30;;;;;;5032898;28;20011;-73
2022/04/13 13:51:48;;;;;;;;;;;24.20;46.70;;;;;;5035627;28;20293;-70
2022/04/13 13:54:13;;;;;;;;;;;24.20;47.60;;;;;;5036498;28;19913;-70
2022/04/13 13:56:39;;;;;;;;;;;24.30;47.20;;;;;;5033347;28;19913;-69
2022/04/13 13:59:04;;;;;;;;;;;24.30;46.90;;;;;;5040601;28;19924;-70
2022/04/13 14:01:30;;;;;;;;;;;24.30;47.00;;;;;;5038728;28;19917;-69
2022/04/13 14:03:55;;;;;;;;;;;24.30;46.30;;;;;;5040897;28;19960;-70
2022/04/13 14:06:21;;;;;;;;;;;24.30;46.20;;;;;;5040185;28;19975;-69
2022/04/13 14:08:49;;;;;;;;;;;24.30;46.50;;;;;;5040174;28;19925;-71
2022/04/13 14:11:14;;;;;;;;;;;24.30;46.60;;;;;;5036803;28;20344;-70
2022/04/13 14:13:40;;;;;;;;;;;24.30;46.50;;;;;;5040623;28;20004;-70
2022/04/13 14:16:05;;;;;;;;;;;24.30;46.50;;;;;;5037455;28;20006;-71
2022/04/13 14:18:30;;;;;;;;;;;24.20;46.70;;;;;;5037570;28;19959;-71